Date,TemperatureHighF,TemperatureAvgF,TemperatureLowF,DewpointHighF,DewpointAvgF,DewpointLowF,HumidityHigh,HumidityAvg,HumidityLow,PressureMaxIn,PressureMinIn,WindSpeedMaxMPH,WindSpeedAvgMPH,GustSpeedMaxMPH,PrecipitationSumIn
2012-1-1,90.1,71.7,60.1,71.4,59.7,50.3,82,67,39,30.23,30.12,7,1,9,0.00
2012-1-2,80.4,66.1,55.6,70.3,56.8,46.7,81,72,65,30.17,30.00,10,2,18,0.08
2012-1-3,62.8,53.3,44.4,50.2,30.4,19.1,83,46,19,30.33,30.14,11,3,20,1.82
2012-1-4,77.4,56.6,41.9,52.6,39.2,24.9,81,53,38,30.36,30.22,7,2,12,0.00
2012-1-5,78.4,62.0,47.7,49.4,37.6,28.9,85,47,18,30.28,30.15,6,2,10,0.00
2012-1-6,82.6,62.0,48.6,60.4,50.7,43.8,85,70,35,30.22,30.10,6,1,9,0.00
2012-1-7,84.6,70.3,56.3,62.0,53.5,39.7,83,59,25,30.18,30.07,6,1,8,0.00
2012-1-8,85.3,72.0,54.5,67.7,57.3,46.1,82,63,38,30.21,30.12,9,2,16,0.00
2012-1-9,80.6,69.2,59.5,69.5,60.1,50.1,81,73,59,30.17,30.07,8,2,13,0.01
2012-1-10,86.0,69.8,58.1,69.6,56.9,48.0,82,65,41,30.08,29.95,7,1,12,0.00
2012-1-11,75.0,67.6,59.5,66.4,57.0,47.6,78,69,58,29.96,29.78,10,2,17,0.00
2012-1-12,81.7,73.0,65.1,71.8,63.1,49.6,79,71,55,29.96,29.82,9,2,12,0.00
2012-1-13,74.3,68.0,61.0,66.8,60.0,52.6,80,76,68,30.13,29.95,6,1,9,0.00
2012-1-14,61.5,57.1,53.2,55.1,48.0,41.2,83,72,60,30.28,29.91,6,3,12,0.33
2012-1-15,81.0,66.2,48.2,48.1,42.2,29.8,81,45,26,30.40,30.30,11,3,15,0.01
2012-1-16,78.3,66.8,55.8,61.2,55.3,44.1,84,68,46,30.39,30.28,13,4,20,0.00
2012-1-17,84.7,71.4,60.1,67.6,60.4,51.9,83,69,47,30.28,30.13,10,2,15,0.00
2012-1-18,84.7,70.1,59.0,70.4,58.3,47.2,82,67,41,30.13,29.96,7,1,10,0.00
2012-1-19,83.8,70.1,58.8,66.8,56.1,49.4,81,63,34,30.11,29.97,9,2,14,0.00
2012-1-20,84.9,68.0,55.2,65.0,55.2,44.1,83,66,37,30.17,30.08,10,2,14,0.00
2012-1-21,86.7,71.0,57.4,66.7,59.9,46.3,82,69,43,30.14,30.01,8,1,14,0.00
2012-1-22,87.3,72.7,59.7,67.0,61.2,48.6,81,68,43,30.11,30.02,9,2,14,0.00
2012-1-23,84.4,74.5,65.5,72.3,64.6,50.2,80,71,53,30.10,30.03,13,2,20,0.00
2012-1-24,85.8,73.5,62.2,74.2,63.2,48.3,80,70,54,30.14,30.05,10,2,15,0.01
2012-1-25,82.6,74.4,66.7,74.1,64.5,52.7,79,71,61,30.15,30.06,11,3,15,0.01
2012-1-26,83.3,75.9,71.4,73.8,66.8,60.7,79,73,69,30.09,29.96,12,4,20,0.00
2012-1-27,86.0,76.7,71.8,74.7,65.7,59.0,80,69,57,30.04,29.91,10,3,16,0.00
2012-1-28,87.3,75.7,69.3,76.0,65.5,57.1,79,71,62,30.12,30.01,6,1,10,0.00
2012-1-29,80.8,72.3,67.6,71.0,63.6,56.5,78,74,67,30.22,30.08,8,2,13,0.00
2012-1-30,80.8,71.7,64.8,66.6,61.5,54.9,81,71,57,30.27,30.17,13,5,19,0.00
2012-1-31,81.5,73.0,66.7,68.1,64.7,59.8,81,75,62,30.29,30.19,12,5,17,0.00
2012-2-1,84.4,75.8,71.1,72.9,67.4,61.5,79,75,66,30.21,30.10,10,4,16,0.00
2012-2-2,75.6,71.5,67.6,62.6,58.1,51.7,71,63,55,30.13,30.03,8,1,11,0.11
2012-2-3,80.1,73.0,66.6,71.8,62.3,53.1,77,69,62,30.17,30.07,12,5,19,0.10
2012-2-4,80.6,74.2,71.2,71.9,64.0,59.5,76,71,63,30.14,30.02,13,6,21,0.03
2012-2-5,85.6,75.5,69.6,76.1,64.0,54.9,77,67,60,30.03,29.94,10,2,15,0.00
2012-2-6,79.0,73.7,69.3,66.3,58.7,52.1,66,59,53,30.04,29.95,12,2,20,1.85
2012-2-7,86.4,76.1,70.5,77.5,61.6,53.1,75,61,52,29.99,29.88,8,2,8,0.04
2012-2-8,81.0,72.9,69.1,72.7,59.4,51.4,76,63,52,30.02,29.93,5,2,8,0.01
2012-2-9,79.0,71.7,67.3,70.6,60.6,54.0,76,68,60,30.07,29.97,10,3,16,0.00
2012-2-10,85.5,75.1,70.3,76.3,60.5,52.8,76,61,49,30.03,29.85,9,3,14,0.25
2012-2-11,73.8,67.3,54.7,64.4,55.8,49.3,83,68,54,30.04,29.83,11,4,21,0.29
2012-2-12,68.7,54.7,46.0,49.6,44.0,34.2,85,69,39,30.23,30.04,10,4,17,0.00
2012-2-13,77.2,61.0,47.8,60.3,49.1,41.6,84,68,37,30.20,30.09,10,2,16,0.01
2012-2-14,82.4,68.4,56.4,66.5,57.8,45.3,81,69,52,30.12,30.04,10,2,16,0.00
2012-2-15,85.5,73.1,61.9,70.7,62.4,48.3,81,70,55,30.18,30.08,9,2,15,0.00
2012-2-16,84.7,75.6,68.9,73.3,66.0,58.7,80,72,66,30.16,30.04,10,2,15,0.00
2012-2-17,83.8,74.4,67.6,74.2,64.0,54.2,78,70,58,30.07,29.95,7,1,12,0.00
2012-2-18,85.8,75.2,67.6,75.0,64.5,54.1,82,69,59,30.00,29.86,9,2,14,0.00
2012-2-19,84.9,78.4,69.8,75.8,66.6,53.2,77,67,51,29.93,29.80,12,6,21,0.00
2012-2-20,84.4,70.6,61.2,65.2,58.0,51.5,82,66,42,30.14,29.91,9,3,18,0.00
2012-2-21,85.8,72.1,63.0,64.8,60.0,53.6,82,67,42,30.18,30.09,9,2,16,0.00
2012-2-22,85.8,72.1,61.2,70.6,61.0,46.7,80,68,54,30.11,29.92,9,2,14,0.00
2012-2-23,87.3,75.5,65.8,74.5,63.4,49.1,80,66,50,29.98,29.88,11,2,16,0.00
2012-2-24,90.3,77.7,68.9,77.3,64.1,49.3,79,63,44,30.01,29.91,10,2,16,0.00
2012-2-25,84.6,74.8,70.9,75.4,62.2,49.2,77,66,42,30.16,29.98,10,3,16,0.00
2012-2-26,78.6,73.7,70.3,69.5,63.1,57.4,74,70,64,30.22,30.13,12,6,18,0.02
2012-2-27,86.4,78.0,73.4,76.5,66.9,59.1,77,69,61,30.25,30.16,11,5,19,0.00
2012-2-28,76.1,73.8,71.4,64.6,61.2,57.1,68,65,61,30.21,30.16,6,1,8,0.00
2012-3-2,82.0,76.6,71.4,72.5,66.0,57.3,79,70,61,30.17,30.17,8,2,13,0.01
2012-3-3,86.4,77.9,72.7,77.0,65.5,56.4,76,66,53,30.17,29.82,13,3,20,0.01
2012-3-4,81.3,72.3,62.2,70.4,55.0,41.9,78,55,37,30.08,29.79,15,4,23,0.13
2012-3-5,82.6,72.4,61.2,59.0,54.0,37.6,83,55,37,30.30,29.91,10,3,18,0.63
2012-3-6,81.9,75.1,70.3,64.9,61.3,0.0,81,64,43,30.33,29.91,18,10,25,0.00
2012-3-7,79.9,73.7,68.5,70.5,65.4,60.7,82,75,68,30.32,30.22,17,9,24,0.00
2012-3-8,79.7,73.6,69.4,68.9,59.2,49.4,71,61,45,30.24,30.12,14,6,22,1.27
2012-3-9,84.9,77.2,72.7,75.4,65.7,58.3,76,68,59,30.17,30.05,14,4,20,0.00
2012-3-10,88.2,77.1,70.7,76.4,64.4,52.9,78,65,52,30.15,30.04,9,2,14,0.01
2012-3-11,83.5,75.7,70.3,73.4,65.3,55.2,77,70,57,30.23,30.12,14,6,22,0.23
2012-3-12,85.5,74.7,69.8,70.3,63.3,56.5,78,68,47,30.26,30.15,13,6,20,0.01
2012-3-13,85.5,75.5,68.5,68.8,64.8,60.6,81,70,49,30.20,30.12,11,4,15,0.00
2012-3-14,85.1,75.7,67.1,72.6,65.7,55.3,80,71,60,30.18,30.09,11,4,16,0.00
2012-3-15,80.2,74.0,70.2,71.6,62.5,55.3,75,67,57,30.18,30.08,14,5,21,0.42
2012-3-16,86.2,76.3,70.3,70.8,64.1,55.2,79,66,54,30.19,30.08,11,4,17,0.00
2012-3-17,87.1,76.2,66.6,71.3,64.6,55.3,80,68,50,30.19,30.09,10,3,15,0.00
2012-3-18,86.2,75.5,66.6,72.8,65.6,53.4,80,72,58,30.19,30.10,12,4,18,0.00
2012-3-19,86.2,76.4,70.5,70.0,64.4,58.9,79,67,44,30.14,30.03,11,4,16,0.02
2012-3-20,83.8,76.1,71.2,73.4,66.7,60.1,79,73,61,30.08,29.99,13,5,21,0.00
2012-3-21,83.5,76.9,72.5,73.6,66.3,57.2,77,70,58,30.12,30.00,16,6,24,0.04
2012-3-22,86.4,78.2,73.2,73.7,67.1,59.6,80,69,57,30.14,30.03,13,5,18,0.00
2012-3-23,88.5,78.5,70.9,71.3,66.6,59.1,80,68,49,30.10,29.99,9,3,14,0.00
2012-3-24,88.9,77.4,68.9,73.6,65.6,56.6,80,68,50,30.02,29.90,9,2,15,0.00
2012-3-25,83.3,75.9,69.3,73.0,65.6,55.8,79,71,60,29.95,29.77,13,4,20,0.00
2012-3-26,90.0,75.7,64.2,68.2,58.6,49.1,79,59,29,29.97,29.85,8,2,13,0.01
2012-3-27,84.6,75.7,69.8,71.5,65.0,57.1,81,70,53,30.14,29.95,11,4,20,0.00
2012-3-28,84.4,75.8,71.6,70.0,65.3,60.0,81,71,52,30.14,30.04,12,5,22,0.00
2012-3-29,87.3,75.9,67.3,70.6,64.1,56.5,80,68,47,30.06,29.95,8,2,14,0.00
2012-3-30,87.4,75.3,65.3,69.9,62.2,55.0,81,65,43,30.06,29.96,9,2,15,0.00
2012-3-31,88.2,75.6,68.5,77.6,65.1,55.1,81,70,57,30.00,29.85,10,2,18,1.85
2012-4-1,89.8,77.7,69.3,75.0,62.6,49.8,79,60,45,29.93,29.82,7,2,13,0.02
2012-4-2,92.8,78.1,67.6,76.6,62.8,51.7,74,60,32,29.90,29.82,8,1,12,0.00
2012-4-3,93.6,84.3,70.0,75.2,68.4,55.5,79,61,35,29.95,29.88,9,3,13,0.00
2012-4-4,90.0,78.7,69.8,77.9,66.5,53.3,79,67,49,29.96,29.79,11,2,17,0.00
2012-4-5,88.9,77.2,70.2,74.2,64.7,59.3,79,66,41,29.87,29.70,12,3,17,0.00
2012-4-6,87.3,77.5,72.5,76.4,63.3,51.4,80,62,45,29.87,29.70,14,4,23,0.19
2012-4-7,85.3,74.8,68.0,71.7,63.9,54.9,78,69,56,30.08,29.86,13,4,21,0.00
2012-4-8,84.6,75.3,69.3,64.4,60.9,57.6,79,62,41,30.13,30.05,12,4,18,0.02
2012-4-9,87.4,75.0,64.8,69.8,62.8,55.3,81,67,46,30.06,29.97,9,2,14,0.00
2012-4-10,88.3,76.0,66.6,69.0,60.7,55.6,81,61,35,30.06,29.96,9,2,16,0.00
2012-4-11,89.8,76.9,66.7,70.8,62.8,55.8,79,64,36,30.04,29.92,8,2,12,0.00
2012-4-12,92.1,77.1,65.1,72.4,63.7,54.9,81,65,36,30.01,29.93,8,3,13,0.00
2012-4-13,85.8,75.2,71.2,75.6,65.4,57.2,77,72,63,30.08,29.97,12,3,16,0.55
2012-4-14,84.4,76.2,69.4,70.7,63.3,51.2,76,65,53,30.20,30.04,16,7,25,1.39
2012-4-15,85.1,78.8,73.4,66.9,61.9,57.3,69,57,42,30.18,30.13,16,6,20,0.64
2012-4-16,84.4,76.0,71.8,65.3,60.6,53.9,76,60,43,30.18,30.08,11,5,18,0.00
2012-4-17,91.2,79.0,72.3,68.4,63.7,56.6,80,62,34,30.15,30.03,11,4,17,0.00
2012-4-18,89.4,78.4,70.3,73.1,67.7,61.1,80,70,52,30.08,29.94,10,4,16,0.00
2012-4-19,90.9,79.3,73.6,75.7,68.7,61.3,79,70,58,29.99,29.86,10,3,17,0.00
2012-4-20,92.8,78.9,68.0,76.7,67.4,52.2,78,68,58,29.92,29.79,11,3,20,0.00
2012-4-21,76.8,73.5,70.3,67.6,59.7,51.8,75,62,51,29.91,29.65,11,4,17,0.00
2012-4-22,84.2,74.1,64.9,71.3,60.5,49.0,79,63,51,29.72,29.53,16,5,24,0.00
2012-4-23,82.6,70.4,61.7,59.7,53.4,46.2,79,57,35,29.90,29.71,12,4,22,0.00
2012-4-24,79.9,66.9,56.1,57.4,47.7,36.7,81,55,24,30.01,29.87,9,2,17,0.00
2012-4-25,87.3,71.4,55.2,61.7,54.8,46.7,82,59,35,30.10,30.00,10,2,15,0.00
2012-4-26,89.8,75.5,63.1,68.7,61.9,51.8,80,64,40,30.12,30.04,11,2,16,0.00
2012-4-27,89.6,77.0,66.9,75.0,66.7,56.0,80,71,59,30.10,30.02,10,3,16,0.00
2012-4-28,83.7,75.5,69.1,74.4,62.2,51.3,75,64,46,30.07,30.00,10,3,14,0.00
2012-4-29,75.9,73.3,70.9,66.7,56.4,50.3,75,56,46,30.05,29.97,13,5,21,0.00
2012-4-30,72.5,71.5,70.5,57.9,47.9,-2.5,61,46,20,30.01,29.91,17,7,26,0.00
2012-5-1,83.5,79.0,75.0,74.5,67.1,45.0,75,67,30,30.05,29.91,15,6,23,0.00
2012-5-2,88.7,79.0,73.0,77.6,67.3,56.9,77,68,57,30.07,29.97,12,6,19,0.00
2012-5-3,90.0,80.0,73.0,77.5,69.0,59.5,78,69,63,30.07,30.00,11,5,16,0.00
2012-5-4,93.7,81.2,72.7,75.5,68.4,61.5,78,66,47,30.07,29.98,8,3,13,0.00
2012-5-5,94.3,80.6,70.2,76.8,67.2,54.6,79,64,48,30.00,29.91,9,2,14,0.00
2012-5-6,93.9,80.8,72.9,79.0,68.0,55.7,78,66,52,29.97,29.85,8,2,14,0.00
2012-5-7,93.9,79.9,70.7,79.1,66.8,53.5,78,65,50,29.91,29.81,10,3,16,0.00
2012-5-8,91.2,76.4,70.9,79.4,63.4,51.8,77,64,50,29.90,29.84,10,1,14,0.10
2012-5-9,92.7,77.9,70.0,80.2,64.1,50.2,77,63,43,29.89,29.77,10,2,16,0.05
2012-5-10,97.7,80.8,73.2,80.7,64.7,50.8,76,59,43,29.87,29.75,10,2,20,0.00
2012-5-11,88.9,78.6,70.5,78.8,64.8,50.8,75,63,45,30.06,29.85,12,4,17,0.00
2012-5-12,87.3,79.7,74.8,76.1,69.0,60.5,77,70,61,30.14,30.02,13,6,20,0.00
2012-5-13,85.5,77.7,73.6,76.1,66.0,55.2,75,68,52,30.10,29.98,10,4,16,0.23
2012-5-14,89.6,79.1,72.9,79.2,63.1,48.7,75,59,41,30.03,29.91,9,2,14,0.00
2012-5-15,92.8,79.1,72.9,81.5,61.6,48.0,77,56,37,30.00,29.90,10,1,14,0.00
2012-5-16,83.8,76.4,71.2,73.3,59.5,50.1,72,56,47,30.00,29.88,4,0,7,0.00
2012-5-17,85.5,77.5,68.7,75.8,63.1,48.2,75,62,44,29.95,29.84,13,2,17,0.00
2012-5-18,88.9,76.2,70.7,77.6,61.1,49.5,76,60,42,29.91,29.83,9,1,14,0.00
2012-5-19,91.9,75.7,70.2,79.8,58.2,48.4,76,55,41,29.95,29.85,9,1,15,0.00
2012-5-20,92.7,78.9,70.9,79.8,63.8,46.8,76,61,42,29.95,29.85,8,2,12,0.00
2012-5-21,95.0,79.5,70.3,80.8,65.6,48.6,78,63,43,29.96,29.88,9,2,13,0.00
2012-5-22,89.6,76.8,72.5,78.5,60.9,50.8,80,59,43,29.95,29.88,10,2,15,0.00
2012-5-23,90.5,79.1,74.1,76.0,65.9,50.8,82,65,45,29.91,29.82,10,3,18,0.00
2012-5-24,85.5,76.2,71.6,77.4,68.8,62.7,88,78,67,29.87,29.78,11,2,15,0.50
2012-5-25,95.7,81.3,70.5,75.2,70.8,64.0,95,72,48,30.00,29.85,9,2,14,0.00
2012-5-26,95.4,82.6,73.8,77.7,72.8,70.2,94,75,48,30.00,29.92,10,2,14,0.00
2012-5-27,93.6,79.6,73.4,75.8,72.6,65.3,94,81,44,29.94,29.82,10,2,17,0.00
2012-5-28,91.4,79.5,72.9,78.7,74.0,70.5,94,84,58,29.95,29.86,14,2,22,0.00
2012-5-29,91.2,79.6,72.9,79.5,74.1,69.2,94,84,59,29.95,29.85,12,2,21,0.00
2012-5-30,85.3,76.5,72.1,77.2,72.3,68.5,95,87,63,29.93,29.80,9,1,12,0.00
2012-5-31,89.1,79.4,74.5,77.8,73.1,67.7,96,82,57,29.93,29.84,10,2,16,0.00
2012-6-1,86.2,77.8,73.0,78.6,74.8,70.7,95,91,74,29.96,29.84,8,2,15,0.00
2012-6-2,86.4,77.8,74.5,80.1,74.2,70.7,94,89,70,29.93,29.85,7,2,13,0.00
2012-6-3,93.4,90.7,79.2,70.7,70.1,62.2,70,52,48,29.99,29.91,1,0,5,0.00
2012-6-4,91.2,82.5,74.7,80.1,72.8,67.4,92,74,49,29.98,29.83,10,3,14,0.00
2012-6-5,91.2,81.5,76.8,79.0,74.7,66.8,91,81,53,29.87,29.79,9,2,14,0.00
2012-6-6,86.0,81.6,78.1,79.4,75.3,68.0,89,82,59,29.94,29.84,10,1,17,0.00
2012-6-7,91.8,84.2,79.5,81.4,75.6,69.0,89,77,51,29.95,29.88,12,2,17,0.00
2012-6-8,91.6,82.1,78.1,80.7,76.4,72.5,89,83,58,29.96,29.86,8,1,15,0.00
2012-6-9,92.5,81.5,76.1,81.7,76.7,72.1,89,86,69,30.00,29.89,9,2,14,0.00
2012-6-10,90.5,81.2,76.8,81.9,76.2,72.7,89,85,67,30.09,29.95,9,2,14,0.00
2012-6-11,93.6,83.6,76.3,77.0,72.8,66.4,90,72,42,30.08,30.00,10,3,16,0.00
2012-6-12,95.0,83.0,74.5,71.8,68.8,63.8,85,65,40,30.05,29.93,8,2,14,0.00
2012-6-13,96.8,82.8,71.6,74.4,70.4,64.9,90,69,38,29.97,29.85,7,2,13,0.00
2012-6-14,95.4,82.7,73.8,82.0,75.4,70.0,89,80,55,29.96,29.86,8,2,13,0.00
2012-6-15,94.5,80.3,73.4,81.8,73.4,69.0,88,80,56,30.00,29.88,14,2,21,0.00
2012-6-16,93.9,82.4,75.2,76.3,71.7,68.0,88,72,47,30.00,29.90,14,3,18,0.00
2012-6-17,92.1,81.5,72.9,72.4,68.7,64.1,88,67,44,30.01,29.90,12,3,17,0.00
2012-6-18,92.5,82.4,75.6,72.7,68.2,63.8,83,64,41,30.00,29.91,12,5,18,0.00
2012-6-19,87.8,81.0,77.2,77.9,73.9,69.8,86,79,66,30.01,29.94,13,6,21,0.00
2012-6-20,85.3,77.5,74.5,78.8,71.4,67.1,88,81,77,29.99,29.91,13,3,20,0.00
2012-6-21,92.5,81.6,74.8,81.3,74.6,67.9,87,80,63,29.97,29.84,11,4,16,0.00
2012-6-22,87.6,79.1,73.0,79.8,73.3,65.2,87,83,76,29.93,29.80,9,2,14,0.00
2012-6-23,85.8,78.2,72.9,80.6,71.9,65.6,87,81,75,29.98,29.83,9,2,17,0.00
2012-6-24,81.1,77.4,73.9,73.9,68.9,65.6,81,75,68,29.96,29.83,15,4,26,0.00
2012-6-25,89.4,83.0,80.1,80.3,76.7,72.6,87,82,65,29.83,29.73,11,4,21,0.00
2012-6-26,89.6,83.3,77.7,78.8,75.9,69.5,87,79,63,29.75,29.67,14,5,24,0.00
2012-6-27,89.2,82.2,78.3,82.0,76.4,71.8,87,83,74,29.97,29.73,14,5,30,0.00
2012-6-28,96.1,83.4,73.8,81.8,75.0,69.1,88,77,54,30.03,29.95,8,2,12,0.00
2012-6-29,95.2,84.5,75.0,81.1,74.4,69.3,87,73,47,30.03,29.91,9,2,12,0.00
2012-6-30,96.8,84.8,75.9,81.4,75.2,68.2,86,74,51,29.98,29.90,8,2,12,0.00
2012-7-1,96.6,84.0,77.2,81.8,75.7,68.0,86,77,54,30.05,29.95,13,1,15,0.00
2012-7-2,86.4,80.3,76.8,80.6,74.1,68.5,86,82,73,30.08,29.98,7,0,12,0.00
2012-7-3,97.9,85.5,76.3,82.6,74.8,68.3,85,72,45,30.04,29.96,8,2,14,0.00
2012-7-4,89.1,81.2,78.1,82.8,74.8,68.7,86,81,71,30.06,29.98,7,1,10,0.00
2012-7-5,95.9,83.8,75.7,83.2,75.4,67.6,87,76,49,30.03,29.95,9,2,17,0.00
2012-7-6,96.6,85.4,77.0,81.5,75.8,68.9,87,74,51,30.03,29.96,9,3,15,0.00
2012-7-7,96.3,85.7,77.4,81.5,76.5,69.2,86,75,46,30.06,29.99,10,3,15,0.00
2012-7-8,96.1,84.0,77.9,83.3,76.8,69.1,86,80,54,30.05,29.98,8,2,13,0.00
2012-7-9,93.4,83.5,76.5,82.6,75.8,65.9,86,78,61,30.03,29.93,8,2,14,0.00
2012-7-10,95.7,84.5,77.4,82.2,76.4,70.7,86,77,53,30.01,29.91,11,2,17,0.00
2012-7-11,88.3,79.1,74.1,79.2,71.9,64.7,87,79,71,30.04,29.91,8,2,14,0.00
2012-7-12,91.8,80.9,73.0,80.7,73.4,64.8,87,78,57,30.02,29.93,9,1,16,0.00
2012-7-13,91.6,81.9,74.5,81.1,74.2,65.6,86,78,64,30.02,29.95,10,3,16,0.00
2012-7-14,88.9,80.1,77.0,81.8,74.4,70.0,87,83,70,30.05,29.95,10,2,13,0.00
2012-7-15,89.6,79.4,75.7,80.2,73.5,68.4,86,82,65,30.09,30.00,7,1,12,0.00
2012-7-18,93.6,87.0,80.8,83.3,78.6,73.7,86,77,60,30.10,30.02,9,3,16,0.00
2012-7-19,94.5,84.8,77.2,82.1,74.9,66.4,86,73,55,30.16,30.06,8,2,12,0.00
2012-7-20,94.1,85.2,77.4,82.4,76.7,69.0,86,76,60,30.11,30.01,9,3,14,0.00
2012-7-21,93.9,85.2,80.1,84.8,78.7,73.1,87,81,68,30.07,29.99,10,4,14,0.00
2012-7-22,88.2,79.9,73.4,82.4,73.5,64.6,86,81,74,30.11,29.99,13,3,20,0.00
2012-7-23,92.5,80.9,75.0,83.0,72.9,65.9,87,77,69,30.14,30.06,9,2,13,0.00
2012-7-24,95.2,83.8,77.9,86.1,75.5,67.9,87,77,68,30.11,29.99,8,2,14,0.00
2012-7-25,88.9,80.9,76.8,81.4,61.5,0.0,86,66,71,30.03,29.98,5,0,8,0.00
2012-7-26,88.7,88.7,88.7,0.0,0.0,0.0,0,0,100,0.00,40.00,0,0,0,0.00
2012-7-27,88.7,88.7,88.7,0.0,0.0,0.0,0,0,100,0.00,40.00,0,0,0,0.00
2012-7-28,88.7,88.7,88.7,0.0,0.0,0.0,0,0,100,0.00,40.00,0,0,0,0.00
2012-8-24,88.7,56.5,55.4,0.0,0.0,0.0,0,0,100,0.00,0.00,0,0,0,0.00
2012-8-25,55.4,55.4,55.4,0.0,0.0,0.0,0,0,100,0.00,40.00,0,0,0,0.00
2012-8-26,55.4,55.4,55.4,0.0,0.0,0.0,0,0,100,0.00,40.00,0,0,0,0.00
2012-8-27,55.4,55.4,55.4,0.0,0.0,0.0,0,0,100,0.00,40.00,0,0,0,0.00
2012-11-16,55.4,55.4,55.4,0.0,0.0,0.0,0,0,100,0.00,0.00,0,0,0,0.00
2012-11-17,55.4,55.4,55.4,0.0,0.0,0.0,0,0,100,0.00,40.00,0,0,0,0.00